Time;durP1;ratioP1;P1;durP2;ratioP2;P2;SDS_P1;SDS_P2;PMS_P1;PMS_P2;Temp;Humidity;BMP_temperature;BMP_pressure;BME280_temperature;BME280_humidity;BME280_pressure;Samples;Min_cycle;Max_cycle;Signal;HPM_P1;HPM_P2
2021/06/13 00:00:39;;;;;;;6.70;6.10;;;19.70;94.90;;;;;;4992872;28;20499;-64
2021/06/13 00:03:09;;;;;;;6.90;5.97;;;19.70;95.00;;;;;;4998990;28;20310;-62
2021/06/13 00:05:35;;;;;;;7.25;6.57;;;19.50;95.30;;;;;;4993524;28;20458;-62
2021/06/13 00:08:01;;;;;;;7.47;6.75;;;19.50;95.10;;;;;;4993755;28;20682;-64
2021/06/13 00:10:26;;;;;;;6.90;6.30;;;19.60;95.30;;;;;;4994578;28;20246;-63
2021/06/13 00:12:52;;;;;;;7.70;6.97;;;19.50;95.00;;;;;;4990015;28;20303;-62
2021/06/13 00:15:22;;;;;;;8.03;7.23;;;19.50;95.10;;;;;;4996888;28;20656;-62
2021/06/13 00:17:48;;;;;;;7.82;7.03;;;19.40;95.10;;;;;;4998617;28;20297;-62
2021/06/13 00:20:20;;;;;;;8.07;7.20;;;19.40;95.10;;;;;;4991481;28;20248;-62
2021/06/13 00:22:46;;;;;;;6.80;6.20;;;19.40;95.10;;;;;;5004437;28;20290;-62
2021/06/13 00:25:12;;;;;;;8.47;7.07;;;19.40;95.00;;;;;;4996450;28;20319;-61
2021/06/13 00:27:38;;;;;;;7.00;6.10;;;19.40;95.20;;;;;;4998099;28;20199;-66
2021/06/13 00:30:06;;;;;;;6.47;5.88;;;19.40;95.10;;;;;;4993708;28;20223;-62
2021/06/13 00:32:31;;;;;;;6.03;5.43;;;19.60;95.00;;;;;;4989638;28;20286;-62
2021/06/13 00:34:57;;;;;;;5.83;5.23;;;19.70;94.80;;;;;;4990301;28;20813;-62
2021/06/13 00:37:23;;;;;;;6.70;5.97;;;19.70;94.40;;;;;;4998087;28;20210;-63
2021/06/13 00:39:48;;;;;;;7.30;6.60;;;19.70;94.30;;;;;;4999057;28;20199;-62
2021/06/13 00:42:14;;;;;;;12.73;6.37;;;19.70;94.20;;;;;;4997073;28;20559;-64
2021/06/13 00:44:39;;;;;;;6.70;6.00;;;19.80;94.10;;;;;;4996219;28;20192;-61
2021/06/13 00:47:05;;;;;;;7.13;6.40;;;19.70;93.60;;;;;;4993814;28;20222;-62
2021/06/13 00:49:30;;;;;;;6.43;5.93;;;19.70;93.60;;;;;;4994096;28;20195;-63
2021/06/13 00:51:59;;;;;;;6.80;6.20;;;19.90;93.60;;;;;;5000859;28;20183;-65
2021/06/13 00:54:27;;;;;;;6.70;6.10;;;19.90;93.30;;;;;;4991131;28;20192;-62
2021/06/13 00:56:53;;;;;;;6.70;5.75;;;20.00;93.50;;;;;;4993427;28;20198;-62
2021/06/13 00:59:20;;;;;;;7.10;6.50;;;20.00;93.50;;;;;;4993136;28;20199;-61
2021/06/13 01:01:46;;;;;;;7.57;6.03;;;20.00;93.30;;;;;;4998941;28;20673;-62
2021/06/13 01:04:11;;;;;;;6.97;6.27;;;20.00;93.90;;;;;;4990519;28;20206;-62
2021/06/13 01:06:46;;;;;;;6.30;5.70;;;19.90;93.40;;;;;;4992346;28;20474;-64
2021/06/13 01:09:16;;;;;;;7.18;6.07;;;19.70;93.20;;;;;;4987623;28;20182;-64
2021/06/13 01:11:55;;;;;;;6.68;5.97;;;19.90;93.30;;;;;;5002044;28;20179;-62
2021/06/13 01:14:33;;;;;;;6.85;6.15;;;19.90;93.10;;;;;;4995345;28;20274;-63
2021/06/13 01:17:05;;;;;;;6.40;5.80;;;19.90;93.20;;;;;;5007687;28;20209;-62
2021/06/13 01:19:49;;;;;;;8.73;6.40;;;20.00;93.20;;;;;;4996805;28;20203;-61
2021/06/13 01:22:52;;;;;;;6.80;6.10;;;20.00;93.10;;;;;;4991472;28;20274;-62
2021/06/13 01:25:48;;;;;;;6.80;6.10;;;19.90;93.10;;;;;;4983864;28;20808;-62
2021/06/13 01:28:31;;;;;;;6.82;6.22;;;19.80;93.40;;;;;;4996003;28;20246;-62
2021/06/13 01:31:01;;;;;;;6.18;5.53;;;19.50;93.50;;;;;;4996972;28;20194;-62
2021/06/13 01:33:30;;;;;;;7.57;5.85;;;19.50;93.50;;;;;;5017584;28;20545;-62
2021/06/13 01:35:56;;;;;;;7.55;6.07;;;19.40;93.30;;;;;;4999501;28;20188;-65
2021/06/13 01:38:23;;;;;;;7.00;6.35;;;19.40;93.70;;;;;;5004136;28;20191;-62
2021/06/13 01:40:49;;;;;;;7.55;6.18;;;19.50;93.70;;;;;;5001527;28;20355;-64
2021/06/13 01:43:16;;;;;;;8.40;6.05;;;19.40;93.40;;;;;;4995652;28;20219;-61
2021/06/13 01:45:44;;;;;;;6.35;5.85;;;19.10;93.70;;;;;;5000681;28;20179;-62
2021/06/13 01:48:13;;;;;;;12.18;6.80;;;19.20;93.60;;;;;;4995506;28;20198;-64
2021/06/13 01:50:40;;;;;;;6.65;6.05;;;19.30;93.50;;;;;;4995118;28;20188;-66
2021/06/13 01:53:12;;;;;;;7.28;6.57;;;19.20;93.50;;;;;;4993118;28;20183;-61
2021/06/13 01:55:38;;;;;;;7.13;5.97;;;19.10;93.70;;;;;;4997832;28;20188;-63
2021/06/13 01:58:06;;;;;;;7.88;5.68;;;19.10;94.10;;;;;;5003503;28;20206;-65
2021/06/13 02:00:35;;;;;;;6.18;5.60;;;19.00;94.20;;;;;;4999807;28;20247;-61
2021/06/13 02:03:02;;;;;;;7.32;6.70;;;19.00;94.20;;;;;;5001388;28;20206;-62
2021/06/13 02:05:29;;;;;;;6.75;6.00;;;19.10;94.30;;;;;;4999472;28;20192;-62
2021/06/13 02:07:56;;;;;;;7.10;6.40;;;19.10;94.40;;;;;;4993326;28;20194;-65
2021/06/13 02:10:22;;;;;;;8.18;6.60;;;19.20;94.40;;;;;;4998625;28;20219;-62
2021/06/13 02:12:49;;;;;;;6.55;5.95;;;19.20;94.40;;;;;;4998075;28;20214;-62
2021/06/13 02:15:21;;;;;;;6.80;6.10;;;19.20;94.30;;;;;;4994669;28;20184;-66
2021/06/13 02:17:51;;;;;;;6.80;6.20;;;19.20;94.30;;;;;;4994913;28;20238;-66
2021/06/13 02:20:23;;;;;;;7.00;6.40;;;19.20;94.30;;;;;;4998435;28;20214;-65
2021/06/13 02:22:51;;;;;;;7.15;6.45;;;19.20;94.40;;;;;;4994116;28;20219;-65
2021/06/13 02:25:22;;;;;;;6.90;6.20;;;19.10;94.70;;;;;;5004293;28;20278;-65
2021/06/13 02:27:51;;;;;;;6.63;6.00;;;18.90;94.80;;;;;;4988361;28;20194;-62
2021/06/13 02:30:20;;;;;;;7.18;6.50;;;19.00;95.10;;;;;;4998261;28;20211;-62
2021/06/13 02:32:46;;;;;;;7.07;6.38;;;19.10;95.20;;;;;;4991398;28;20207;-62
2021/06/13 02:35:14;;;;;;;7.35;5.60;;;18.90;95.00;;;;;;4992286;28;20192;-62
2021/06/13 02:37:42;;;;;;;6.57;5.90;;;18.90;95.30;;;;;;4996140;28;20760;-62
2021/06/13 02:40:10;;;;;;;6.38;5.78;;;19.00;95.10;;;;;;4995270;28;20203;-62
2021/06/13 02:42:36;;;;;;;7.15;5.28;;;19.00;94.70;;;;;;5001098;28;20270;-64
2021/06/13 02:45:06;;;;;;;6.33;5.63;;;19.00;94.70;;;;;;4992456;28;20266;-64
2021/06/13 02:47:32;;;;;;;6.25;5.30;;;19.00;94.70;;;;;;4984502;28;20483;-66
2021/06/13 02:50:01;;;;;;;6.60;6.00;;;19.00;94.50;;;;;;4989106;28;20661;-65
2021/06/13 02:52:34;;;;;;;6.65;5.95;;;19.10;94.20;;;;;;5000180;28;20683;-61
2021/06/13 02:55:01;;;;;;;7.03;6.40;;;19.10;94.00;;;;;;4997756;28;20222;-64
2021/06/13 02:57:41;;;;;;;5.57;5.07;;;19.00;93.70;;;;;;4998393;28;20211;-63
2021/06/13 03:00:11;;;;;;;6.63;5.13;;;18.90;93.30;;;;;;4991249;28;20263;-62
2021/06/13 03:02:41;;;;;;;7.35;6.32;;;19.00;93.50;;;;;;5000213;28;20194;-62
2021/06/13 03:05:08;;;;;;;7.78;6.00;;;18.80;93.40;;;;;;5003998;28;20179;-62
2021/06/13 03:07:37;;;;;;;6.95;5.38;;;18.80;93.50;;;;;;5000099;28;21007;-65
2021/06/13 03:10:06;;;;;;;5.80;5.30;;;18.80;93.50;;;;;;5000200;28;20746;-64
2021/06/13 03:12:32;;;;;;;6.15;5.53;;;18.80;93.50;;;;;;4993201;28;20218;-62
2021/06/13 03:14:59;;;;;;;5.88;5.35;;;18.70;93.70;;;;;;5000952;28;20183;-61
2021/06/13 03:17:26;;;;;;;5.75;5.25;;;18.80;93.80;;;;;;4993090;28;20210;-62
2021/06/13 03:19:53;;;;;;;7.07;6.38;;;18.90;93.50;;;;;;4998892;28;20214;-63
2021/06/13 03:22:20;;;;;;;6.05;5.47;;;18.90;93.50;;;;;;4999249;28;20278;-64
2021/06/13 03:24:48;;;;;;;5.70;5.10;;;19.10;93.30;;;;;;4994251;28;20194;-61
2021/06/13 03:27:15;;;;;;;5.65;5.07;;;19.00;93.00;;;;;;4997971;28;20591;-61
2021/06/13 03:29:43;;;;;;;6.40;5.35;;;19.10;93.10;;;;;;4995257;28;20600;-67
2021/06/13 03:32:11;;;;;;;6.10;5.50;;;19.10;93.20;;;;;;4992039;28;20208;-65
2021/06/13 03:34:39;;;;;;;6.85;5.30;;;19.10;93.20;;;;;;5004422;28;20199;-62
2021/06/13 03:37:10;;;;;;;6.57;5.57;;;19.10;93.10;;;;;;4999098;28;20724;-60
2021/06/13 03:39:37;;;;;;;6.03;5.40;;;19.00;93.60;;;;;;4995179;28;20226;-60
2021/06/13 03:42:04;;;;;;;5.72;5.13;;;19.20;93.30;;;;;;4995741;28;20211;-60
2021/06/13 03:44:31;;;;;;;7.63;5.88;;;19.20;92.90;;;;;;4997352;28;20197;-60
2021/06/13 03:46:58;;;;;;;6.25;5.65;;;19.00;93.00;;;;;;5018757;28;20202;-60
2021/06/13 03:49:24;;;;;;;5.75;5.25;;;18.90;93.40;;;;;;4996368;28;20187;-59
2021/06/13 03:51:51;;;;;;;6.63;4.93;;;18.80;93.60;;;;;;4999389;28;20534;-60
2021/06/13 03:54:17;;;;;;;6.10;5.50;;;18.90;93.60;;;;;;4988933;28;20242;-60
2021/06/13 03:56:51;;;;;;;5.87;5.17;;;18.80;93.40;;;;;;4991483;28;20220;-62
2021/06/13 03:59:19;;;;;;;5.35;4.82;;;18.70;93.60;;;;;;4990611;28;20583;-61
2021/06/13 04:01:46;;;;;;;5.78;5.10;;;18.80;93.20;;;;;;4998708;28;20198;-62
2021/06/13 04:04:12;;;;;;;6.53;4.88;;;18.90;93.10;;;;;;4994311;28;20190;-63
2021/06/13 04:06:41;;;;;;;4.65;4.25;;;18.80;92.90;;;;;;4998260;28;20859;-61
2021/06/13 04:09:10;;;;;;;6.40;4.70;;;18.80;93.00;;;;;;5001348;28;20470;-64
2021/06/13 04:11:38;;;;;;;5.75;5.00;;;18.90;92.90;;;;;;4992834;28;20205;-61
2021/06/13 04:14:04;;;;;;;5.72;4.53;;;18.90;92.40;;;;;;4998222;28;20186;-61
2021/06/13 04:16:31;;;;;;;4.93;4.43;;;18.90;92.20;;;;;;4993661;28;20421;-61
2021/06/13 04:18:57;;;;;;;6.72;4.50;;;19.00;92.40;;;;;;4994564;28;20918;-61
2021/06/13 04:21:23;;;;;;;4.63;4.25;;;18.90;92.20;;;;;;4991336;28;20211;-61
2021/06/13 04:23:49;;;;;;;7.00;4.90;;;18.90;92.30;;;;;;4991677;28;20190;-61
2021/06/13 04:26:21;;;;;;;5.15;4.63;;;18.90;92.60;;;;;;4989270;28;20756;-62
2021/06/13 04:28:49;;;;;;;4.82;4.43;;;18.90;92.10;;;;;;4995132;28;20674;-64
2021/06/13 04:31:16;;;;;;;7.75;5.03;;;18.80;92.00;;;;;;4998420;28;20199;-62
2021/06/13 04:33:45;;;;;;;4.50;4.10;;;18.70;92.10;;;;;;4999654;28;20206;-64
2021/06/13 04:36:12;;;;;;;6.32;5.45;;;18.60;92.80;;;;;;4994312;28;20357;-62
2021/06/13 04:38:38;;;;;;;5.22;4.72;;;18.60;92.60;;;;;;4996912;28;20584;-62
2021/06/13 04:41:05;;;;;;;5.40;4.67;;;18.50;92.80;;;;;;4999261;28;20214;-64
2021/06/13 04:43:33;;;;;;;9.80;5.95;;;18.50;93.20;;;;;;4995486;28;20438;-62
2021/06/13 04:45:59;;;;;;;6.68;5.10;;;18.60;93.20;;;;;;4993429;28;20207;-62
2021/06/13 04:48:25;;;;;;;5.72;5.22;;;18.50;93.20;;;;;;4997471;28;20186;-61
2021/06/13 04:50:52;;;;;;;6.10;5.60;;;18.30;93.50;;;;;;4988942;28;20183;-65
2021/06/13 04:53:48;;;;;;;5.43;4.78;;;18.10;93.60;;;;;;4992130;28;20249;-63
2021/06/13 04:56:44;;;;;;;7.05;5.45;;;18.20;93.90;;;;;;4989807;28;20215;-61
2021/06/13 04:59:10;;;;;;;5.65;4.88;;;18.40;93.60;;;;;;4990692;28;20191;-63
2021/06/13 05:01:39;;;;;;;6.40;5.10;;;18.30;93.90;;;;;;4992131;28;20210;-58
2021/06/13 05:04:04;;;;;;;6.72;5.43;;;18.30;93.90;;;;;;5004180;28;20184;-58
2021/06/13 05:06:30;;;;;;;5.83;5.20;;;18.40;93.40;;;;;;4999118;28;20298;-58
2021/06/13 05:08:56;;;;;;;7.63;5.40;;;18.50;93.30;;;;;;4992742;28;20575;-58
2021/06/13 05:11:22;;;;;;;5.50;5.00;;;18.50;93.00;;;;;;5000189;28;20578;-58
2021/06/13 05:13:47;;;;;;;5.87;5.27;;;18.50;92.90;;;;;;4997393;28;20190;-58
2021/06/13 05:16:13;;;;;;;6.50;4.33;;;18.40;92.80;;;;;;4994861;28;20211;-58
2021/06/13 05:18:38;;;;;;;7.37;4.90;;;18.40;93.10;;;;;;4991520;28;20183;-59
2021/06/13 05:21:05;;;;;;;7.33;5.00;;;18.50;93.00;;;;;;4999357;28;20238;-59
2021/06/13 05:23:30;;;;;;;8.98;4.97;;;18.60;93.00;;;;;;4978541;28;20379;-58
2021/06/13 05:26:00;;;;;;;6.90;4.00;;;18.60;92.80;;;;;;5002441;28;20323;-59
2021/06/13 05:28:26;;;;;;;7.47;4.53;;;18.60;92.70;;;;;;4988682;28;20904;-58
2021/06/13 05:30:52;;;;;;;5.13;4.72;;;18.60;92.50;;;;;;4988606;28;20188;-59
2021/06/13 05:33:18;;;;;;;5.22;4.72;;;18.70;92.40;;;;;;4982655;28;20219;-59
2021/06/13 05:35:44;;;;;;;5.72;4.85;;;18.80;92.30;;;;;;4986920;28;20188;-59
2021/06/13 05:38:11;;;;;;;4.53;4.13;;;18.80;92.30;;;;;;4986783;28;20207;-58
2021/06/13 05:40:37;;;;;;;6.35;5.10;;;18.70;92.30;;;;;;4983297;28;20204;-59
2021/06/13 05:43:05;;;;;;;5.78;4.97;;;18.70;92.40;;;;;;4985602;28;20176;-59
2021/06/13 05:45:32;;;;;;;4.70;4.25;;;18.70;92.50;;;;;;4982405;28;20195;-59
2021/06/13 05:47:58;;;;;;;4.90;4.50;;;18.80;92.00;;;;;;4988421;28;20253;-59
2021/06/13 05:53:46;;;;;;;4.75;4.35;;;18.90;91.40;;;;;;4985949;28;20588;-59
2021/06/13 05:56:12;;;;;;;5.03;3.90;;;18.90;91.30;;;;;;4983146;28;20203;-60
2021/06/13 05:58:37;;;;;;;6.53;4.10;;;18.70;91.40;;;;;;4988587;28;20198;-59
2021/06/13 06:04:38;;;;;;;7.20;4.68;;;18.80;91.60;;;;;;4980956;28;20651;-60
2021/06/13 06:07:03;;;;;;;4.75;4.10;;;18.90;91.00;;;;;;4988817;28;20195;-59
2021/06/13 06:09:51;;;;;;;4.97;3.90;;;18.90;91.40;;;;;;4990671;28;20191;-59
2021/06/13 06:12:16;;;;;;;4.93;4.40;;;19.00;91.30;;;;;;4976706;28;20223;-59
2021/06/13 06:14:43;;;;;;;5.93;4.97;;;19.10;91.00;;;;;;4990851;28;20200;-60
2021/06/13 06:17:13;;;;;;;5.40;4.30;;;19.20;90.80;;;;;;4988291;28;20206;-59
2021/06/13 06:19:39;;;;;;;4.85;4.43;;;19.20;90.80;;;;;;4995077;28;20281;-59
2021/06/13 06:22:08;;;;;;;5.77;4.23;;;19.20;90.80;;;;;;4989588;28;20920;-59
2021/06/13 06:24:34;;;;;;;4.30;4.00;;;19.20;91.00;;;;;;4993495;28;20614;-59
2021/06/13 06:27:00;;;;;;;4.25;3.83;;;19.20;90.50;;;;;;5001958;28;20371;-59
2021/06/13 06:29:26;;;;;;;5.05;4.57;;;19.30;90.60;;;;;;4996005;28;20734;-60
2021/06/13 06:31:52;;;;;;;4.90;4.03;;;19.40;90.60;;;;;;4991063;28;20184;-60
2021/06/13 06:34:18;;;;;;;6.68;4.47;;;19.30;90.20;;;;;;5007901;28;20806;-60
2021/06/13 06:36:44;;;;;;;5.70;3.70;;;19.10;90.70;;;;;;4990006;28;20230;-60
2021/06/13 06:39:10;;;;;;;5.70;4.30;;;19.20;91.00;;;;;;4995680;28;20187;-59
2021/06/13 06:41:37;;;;;;;10.88;8.32;;;19.40;90.60;;;;;;4994907;28;20203;-60
2021/06/13 06:44:04;;;;;;;5.95;4.97;;;19.60;90.40;;;;;;4999671;28;20184;-60
2021/06/13 06:46:30;;;;;;;6.63;4.75;;;19.70;90.00;;;;;;4990480;28;20211;-59
2021/06/13 06:48:55;;;;;;;4.47;4.07;;;19.80;90.00;;;;;;4995192;28;20552;-59
2021/06/13 06:51:21;;;;;;;5.07;4.67;;;20.00;88.70;;;;;;4986430;28;20203;-58
2021/06/13 06:53:46;;;;;;;7.40;4.50;;;20.00;88.60;;;;;;4991424;28;20210;-60
2021/06/13 06:56:12;;;;;;;5.13;3.80;;;20.10;88.60;;;;;;4991512;28;20208;-59
2021/06/13 06:58:38;;;;;;;6.07;4.03;;;20.20;88.20;;;;;;4993272;28;20223;-59
2021/06/13 07:01:03;;;;;;;5.57;4.07;;;20.50;87.30;;;;;;5001950;28;20211;-59
2021/06/13 07:03:30;;;;;;;4.10;3.30;;;20.80;87.50;;;;;;4986097;28;20212;-59
2021/06/13 07:05:59;;;;;;;4.47;3.37;;;22.50;82.50;;;;;;4996424;28;20766;-60
2021/06/13 07:08:24;;;;;;;6.50;3.87;;;24.70;74.20;;;;;;4986638;28;20439;-60
2021/06/13 07:10:50;;;;;;;3.10;2.87;;;26.60;68.20;;;;;;5009275;28;20448;-60
2021/06/13 07:13:16;;;;;;;4.33;3.90;;;29.20;59.80;;;;;;5001659;28;20262;-60
2021/06/13 07:15:41;;;;;;;3.57;3.37;;;30.90;54.30;;;;;;4991608;28;20197;-60
2021/06/13 07:18:07;;;;;;;5.20;4.10;;;32.80;49.80;;;;;;4993503;28;20214;-60
2021/06/13 07:20:35;;;;;;;4.83;2.80;;;32.70;47.20;;;;;;4988980;28;20266;-60
2021/06/13 07:23:00;;;;;;;4.43;4.00;;;33.20;46.30;;;;;;4983060;28;20179;-60
2021/06/13 07:25:27;;;;;;;4.57;4.00;;;31.60;46.90;;;;;;4986828;28;20441;-60
2021/06/13 07:27:53;;;;;;;4.00;3.60;;;31.60;47.40;;;;;;4997657;28;20258;-60
2021/06/13 07:30:19;;;;;;;3.93;3.47;;;31.60;48.10;;;;;;4990434;28;20438;-60
2021/06/13 07:32:45;;;;;;;5.60;3.83;;;34.20;44.80;;;;;;4990152;28;20211;-60
2021/06/13 07:35:12;;;;;;;5.07;4.20;;;32.20;45.10;;;;;;4990752;28;20453;-60
2021/06/13 07:41:00;;;;;;;4.60;4.30;;;34.10;43.50;;;;;;4984679;28;20501;-60
2021/06/13 07:43:26;;;;;;;3.97;3.40;;;34.50;42.80;;;;;;4989957;28;20442;-60
2021/06/13 07:45:52;;;;;;;4.87;4.40;;;35.50;41.40;;;;;;4991249;28;20635;-60
2021/06/13 07:48:18;;;;;;;3.87;3.50;;;35.00;40.50;;;;;;4989119;28;20442;-60
2021/06/13 07:50:44;;;;;;;3.87;3.57;;;34.50;41.70;;;;;;4989452;28;20442;-60
2021/06/13 07:53:11;;;;;;;5.83;3.70;;;33.60;41.90;;;;;;4990283;28;20441;-60
2021/06/13 07:55:38;;;;;;;3.90;3.57;;;34.80;41.70;;;;;;4990441;28;20438;-60
2021/06/13 07:58:07;;;;;;;3.80;3.50;;;35.90;40.20;;;;;;4989647;28;20469;-61
2021/06/13 08:00:33;;;;;;;4.20;3.80;;;35.70;40.10;;;;;;4984021;28;20495;-61
2021/06/13 08:02:59;;;;;;;4.47;3.77;;;35.50;39.30;;;;;;4987600;28;20534;-60
2021/06/13 08:05:28;;;;;;;4.17;3.77;;;34.30;41.10;;;;;;4983575;28;20513;-60
2021/06/13 08:07:55;;;;;;;3.87;3.50;;;33.50;41.90;;;;;;4997876;28;20629;-60
2021/06/13 08:10:21;;;;;;;3.97;3.60;;;33.30;42.60;;;;;;4983321;28;20434;-60
2021/06/13 08:12:47;;;;;;;5.30;4.80;;;33.10;42.80;;;;;;4996058;28;20442;-60
2021/06/13 08:15:13;;;;;;;4.30;3.87;;;34.90;40.60;;;;;;4993322;28;20188;-61
2021/06/13 08:17:39;;;;;;;3.60;3.27;;;35.00;40.40;;;;;;4992015;28;20246;-60
2021/06/13 08:20:05;;;;;;;4.20;3.53;;;35.10;39.80;;;;;;4990554;28;20932;-60
2021/06/13 08:22:31;;;;;;;4.63;3.33;;;34.60;39.20;;;;;;4989747;28;20608;-60
2021/06/13 08:25:00;;;;;;;5.13;3.93;;;34.90;40.00;;;;;;5000924;28;20474;-60
2021/06/13 08:27:29;;;;;;;4.30;3.50;;;35.40;39.70;;;;;;4992862;28;20202;-60
2021/06/13 08:29:56;;;;;;;3.80;3.50;;;34.10;38.90;;;;;;4997480;28;20866;-60
2021/06/13 08:32:23;;;;;;;5.23;3.90;;;35.60;39.10;;;;;;4990113;28;20806;-61
2021/06/13 08:34:49;;;;;;;4.20;3.90;;;35.10;38.00;;;;;;4989353;28;20442;-60
2021/06/13 08:37:15;;;;;;;4.07;3.67;;;34.50;39.30;;;;;;4992602;28;20466;-60
2021/06/13 08:39:40;;;;;;;3.93;3.63;;;35.30;38.60;;;;;;4999122;28;20556;-60
2021/06/13 08:42:06;;;;;;;4.10;3.27;;;34.80;38.60;;;;;;4993811;28;20287;-60
2021/06/13 08:44:32;;;;;;;3.57;3.23;;;35.30;37.30;;;;;;4999904;28;20188;-60
2021/06/13 08:47:00;;;;;;;3.90;3.60;;;35.40;36.50;;;;;;4992727;28;20460;-61
2021/06/13 08:49:26;;;;;;;3.37;3.10;;;36.20;36.60;;;;;;4993261;28;20632;-60
2021/06/13 08:51:52;;;;;;;4.63;4.20;;;36.90;35.10;;;;;;4989009;28;20470;-61
2021/06/13 08:54:19;;;;;;;4.20;3.90;;;36.50;35.40;;;;;;4997710;28;20443;-60
2021/06/13 08:56:44;;;;;;;6.13;3.60;;;36.00;36.10;;;;;;4988717;28;20490;-60
2021/06/13 08:59:11;;;;;;;3.07;2.87;;;34.50;36.60;;;;;;4993713;28;20879;-60
2021/06/13 09:01:37;;;;;;;5.17;3.40;;;34.00;38.80;;;;;;4989817;28;20602;-60
2021/06/13 09:04:04;;;;;;;4.07;3.67;;;33.80;39.70;;;;;;5001975;28;20446;-61
2021/06/13 09:06:29;;;;;;;4.00;3.60;;;34.10;37.70;;;;;;4997276;28;20474;-61
2021/06/13 09:08:55;;;;;;;4.17;3.20;;;34.80;37.60;;;;;;4998953;28;20900;-60
2021/06/13 09:11:41;;;;;;;5.30;3.90;;;35.30;36.50;;;;;;4996813;28;20605;-60
2021/06/13 09:14:14;;;;;;;4.20;3.80;;;35.80;35.60;;;;;;4993410;28;20225;-60
2021/06/13 09:16:44;;;;;;;4.93;4.03;;;35.80;36.30;;;;;;4988188;28;20561;-61
2021/06/13 09:19:10;;;;;;;4.23;3.50;;;35.90;36.70;;;;;;4995507;28;20477;-61
2021/06/13 09:21:39;;;;;;;4.10;3.63;;;34.80;37.50;;;;;;4992818;28;20545;-60
2021/06/13 09:24:17;;;;;;;7.53;6.73;;;35.90;36.90;;;;;;5007279;28;20473;-60
2021/06/13 09:26:43;;;;;;;3.60;3.27;;;35.70;36.40;;;;;;4987853;28;20598;-60
2021/06/13 09:29:08;;;;;;;4.33;3.80;;;36.30;35.10;;;;;;4989222;28;20446;-60
2021/06/13 09:31:36;;;;;;;3.73;3.43;;;36.40;35.40;;;;;;4988089;28;20438;-60
2021/06/13 09:34:05;;;;;;;3.33;2.97;;;36.40;34.80;;;;;;5002340;28;20200;-61
2021/06/13 09:36:34;;;;;;;4.60;4.20;;;36.00;34.60;;;;;;4993341;28;20831;-61
2021/06/13 09:39:06;;;;;;;5.43;3.30;;;36.70;33.70;;;;;;4999874;28;20948;-60
2021/06/13 09:41:34;;;;;;;3.70;3.40;;;36.60;34.20;;;;;;5008766;28;20469;-60
2021/06/13 09:44:05;;;;;;;3.40;3.10;;;37.20;33.70;;;;;;4993381;28;20515;-60
2021/06/13 09:46:34;;;;;;;4.00;3.17;;;36.00;34.70;;;;;;5002942;28;20513;-60
2021/06/13 09:49:06;;;;;;;3.83;3.00;;;36.30;34.60;;;;;;4990614;28;20443;-60
2021/06/13 09:51:34;;;;;;;3.10;2.90;;;36.70;34.20;;;;;;4992159;28;20831;-60
2021/06/13 09:54:02;;;;;;;3.47;3.20;;;36.80;34.10;;;;;;5006630;28;20460;-61
2021/06/13 09:56:39;;;;;;;7.60;3.57;;;37.10;33.50;;;;;;4996201;28;21063;-60
2021/06/13 09:59:10;;;;;;;3.60;3.30;;;36.30;33.20;;;;;;5002537;28;20832;-60
2021/06/13 10:01:38;;;;;;;4.70;3.60;;;36.20;34.00;;;;;;4992105;28;20484;-60
2021/06/13 10:04:06;;;;;;;4.70;3.50;;;34.20;35.80;;;;;;5006401;28;20437;-61
2021/06/13 10:06:35;;;;;;;3.50;3.20;;;35.10;35.70;;;;;;5002157;28;20464;-61
2021/06/13 10:09:03;;;;;;;3.53;3.10;;;35.60;34.60;;;;;;4994188;28;20959;-61
2021/06/13 10:11:29;;;;;;;3.80;3.40;;;34.80;35.70;;;;;;4994945;28;20878;-61
2021/06/13 10:14:05;;;;;;;3.50;3.20;;;33.60;36.50;;;;;;4997338;28;20477;-61
2021/06/13 10:16:41;;;;;;;3.50;3.20;;;33.30;37.30;;;;;;5002594;28;20719;-60
2021/06/13 10:19:12;;;;;;;3.20;2.90;;;33.70;37.20;;;;;;4991093;28;20449;-60
2021/06/13 10:21:47;;;;;;;4.00;3.00;;;34.20;37.10;;;;;;4991908;28;20476;-60
2021/06/13 10:24:21;;;;;;;4.30;3.90;;;34.70;36.20;;;;;;4990347;28;20516;-60
2021/06/13 10:26:54;;;;;;;4.07;3.67;;;34.60;36.40;;;;;;4997674;28;20531;-61
2021/06/13 10:29:21;;;;;;;4.87;3.63;;;34.50;35.80;;;;;;4998560;28;20537;-61
2021/06/13 10:31:50;;;;;;;4.27;3.87;;;35.20;35.60;;;;;;4991749;28;20473;-60
2021/06/13 10:34:17;;;;;;;3.30;3.10;;;35.40;35.20;;;;;;4991218;28;20462;-61
2021/06/13 10:36:44;;;;;;;3.93;3.60;;;35.30;34.80;;;;;;4985452;28;20466;-60
2021/06/13 10:39:15;;;;;;;4.03;3.60;;;34.20;35.70;;;;;;4989362;28;20439;-60
2021/06/13 10:41:42;;;;;;;3.83;3.37;;;34.20;34.70;;;;;;4992033;28;20477;-60
2021/06/13 10:44:11;;;;;;;3.40;3.20;;;34.00;36.10;;;;;;4992561;28;20532;-60
2021/06/13 10:46:38;;;;;;;3.07;2.77;;;34.20;35.30;;;;;;5004100;28;20489;-60
2021/06/13 10:49:06;;;;;;;3.20;2.90;;;34.30;34.60;;;;;;4997041;28;20443;-60
2021/06/13 10:51:32;;;;;;;4.00;3.00;;;33.40;36.60;;;;;;4995500;28;20449;-61
2021/06/13 10:54:25;;;;;;;3.97;3.30;;;33.50;37.30;;;;;;4990821;28;20457;-61
2021/06/13 10:56:56;;;;;;;3.17;2.90;;;33.90;37.10;;;;;;4989781;28;20463;-61
2021/06/13 10:59:22;;;;;;;3.30;3.10;;;34.20;36.00;;;;;;5004504;28;20819;-61
2021/06/13 11:02:03;;;;;;;2.90;2.70;;;33.40;36.50;;;;;;4995488;28;20467;-60
2021/06/13 11:04:51;;;;;;;2.97;2.77;;;34.10;36.60;;;;;;4994657;28;20446;-60
2021/06/13 11:07:35;;;;;;;3.10;2.90;;;32.50;38.00;;;;;;4998216;28;20466;-59
2021/06/13 11:13:00;;;;;;;4.20;3.20;;;32.00;39.10;;;;;;4993808;28;20442;-60
2021/06/13 11:15:25;;;;;;;3.80;3.50;;;32.50;38.90;;;;;;4987814;28;20491;-60
2021/06/13 11:17:56;;;;;;;3.23;2.93;;;32.50;38.20;;;;;;5001781;28;21076;-60
2021/06/13 11:20:33;;;;;;;4.33;3.50;;;32.70;39.60;;;;;;4987108;28;20243;-59
2021/06/13 11:23:05;;;;;;;3.50;3.20;;;32.90;38.20;;;;;;5004343;28;20523;-60
2021/06/13 11:25:35;;;;;;;4.63;3.63;;;32.70;38.90;;;;;;4990006;28;20439;-59
2021/06/13 11:28:13;;;;;;;5.40;3.67;;;32.40;39.10;;;;;;4990519;28;20500;-59
2021/06/13 11:30:42;;;;;;;4.20;3.70;;;32.30;39.10;;;;;;4990477;28;20458;-59
2021/06/13 11:33:09;;;;;;;6.03;4.33;;;31.20;38.20;;;;;;4999277;28;20519;-59
2021/06/13 11:35:45;;;;;;;3.40;3.10;;;30.10;40.40;;;;;;4994220;28;20478;-60
2021/06/13 11:38:13;;;;;;;5.30;3.33;;;30.00;38.60;;;;;;4991605;28;20474;-59
2021/06/13 11:40:48;;;;;;;4.13;3.70;;;29.70;39.40;;;;;;4997697;28;20529;-60
2021/06/13 11:43:16;;;;;;;2.43;2.23;;;29.80;39.20;;;;;;4994423;28;20444;-59
2021/06/13 11:46:05;;;;;;;2.50;2.40;;;29.20;39.50;;;;;;4991161;28;20451;-59
2021/06/13 11:48:34;;;;;;;5.73;2.90;;;29.00;40.30;;;;;;4993233;28;21057;-60
2021/06/13 11:51:21;;;;;;;2.67;2.47;;;28.60;40.70;;;;;;4990112;28;20506;-59
2021/06/13 11:53:52;;;;;;;3.60;2.90;;;28.40;42.10;;;;;;5007360;28;20518;-59
2021/06/13 11:59:13;;;;;;;3.60;3.40;;;27.70;44.60;;;;;;4990939;28;20438;-59
2021/06/13 12:01:40;;;;;;;3.50;3.20;;;27.50;45.60;;;;;;4987414;28;20867;-59
2021/06/13 12:04:10;;;;;;;3.67;3.30;;;27.30;46.10;;;;;;4996642;28;20445;-58
2021/06/13 12:06:37;;;;;;;3.70;3.40;;;26.80;47.00;;;;;;5002244;28;20466;-58
2021/06/13 12:09:23;;;;;;;3.90;3.10;;;26.70;47.20;;;;;;4999604;28;20435;-59
2021/06/13 12:11:57;;;;;;;3.40;3.10;;;26.80;45.70;;;;;;4986456;28;20536;-59
2021/06/13 12:14:38;;;;;;;2.90;2.70;;;26.50;45.70;;;;;;4995757;28;20445;-59
2021/06/13 12:17:10;;;;;;;3.13;2.83;;;26.20;46.70;;;;;;5002432;28;20488;-59
2021/06/13 12:19:47;;;;;;;3.40;3.10;;;26.40;46.00;;;;;;5000702;28;20439;-59
2021/06/13 12:22:30;;;;;;;3.20;3.00;;;26.10;46.70;;;;;;4991686;28;20960;-59
2021/06/13 12:28:10;;;;;;;4.03;2.87;;;26.00;46.10;;;;;;4995058;28;20489;-59
2021/06/13 12:30:38;;;;;;;3.03;2.80;;;26.10;47.50;;;;;;4987587;28;20452;-59
2021/06/13 12:33:07;;;;;;;3.30;3.00;;;26.20;47.50;;;;;;4990697;28;20475;-59
2021/06/13 12:35:35;;;;;;;3.77;3.47;;;26.20;48.00;;;;;;4992391;28;20448;-59
2021/06/13 12:38:06;;;;;;;4.13;2.83;;;26.00;48.40;;;;;;4983384;28;20468;-59
2021/06/13 12:40:42;;;;;;;3.23;2.93;;;26.00;48.30;;;;;;4991561;28;20475;-59
2021/06/13 12:43:08;;;;;;;3.63;3.33;;;25.90;48.00;;;;;;4989609;28;20449;-58
2021/06/13 12:45:35;;;;;;;3.80;3.20;;;25.80;47.80;;;;;;4988986;28;20444;-59
2021/06/13 12:48:04;;;;;;;6.53;3.50;;;25.50;46.90;;;;;;4991475;28;20582;-59
2021/06/13 12:50:33;;;;;;;5.97;3.30;;;25.50;48.00;;;;;;4987849;28;20493;-59
2021/06/13 12:53:00;;;;;;;2.90;2.70;;;25.60;48.40;;;;;;4993305;28;20458;-60
2021/06/13 12:55:35;;;;;;;2.60;2.40;;;25.60;48.40;;;;;;4994338;28;20456;-58
2021/06/13 12:58:01;;;;;;;4.23;3.40;;;25.40;47.50;;;;;;4998851;28;21310;-58
2021/06/13 13:00:28;;;;;;;3.30;3.10;;;25.40;47.80;;;;;;4988972;28;21001;-58
2021/06/13 13:03:07;;;;;;;2.83;2.63;;;25.40;45.80;;;;;;4986793;28;20448;-58
2021/06/13 13:05:34;;;;;;;2.50;2.30;;;25.50;45.50;;;;;;4991176;28;20758;-59
2021/06/13 13:08:13;;;;;;;2.93;2.60;;;25.60;46.50;;;;;;4996811;28;20458;-59
2021/06/13 13:10:39;;;;;;;3.17;2.87;;;25.50;46.70;;;;;;4994197;28;20483;-59
2021/06/13 13:13:06;;;;;;;3.77;2.40;;;25.60;46.80;;;;;;4989070;28;20471;-59